sensor_id;sensor_type;location;lat;lon;timestamp;P1;durP1;ratioP1;P2;durP2;ratioP2
11010;SDS011;5558;42.702;23.178;2022-10-13T00:02:15;12.30;;;10.93;;
11010;SDS011;5558;42.702;23.178;2022-10-13T00:04:42;11.87;;;10.53;;
11010;SDS011;5558;42.702;23.178;2022-10-13T00:07:10;12.57;;;10.20;;
11010;SDS011;5558;42.702;23.178;2022-10-13T00:09:37;11.00;;;9.83;;
11010;SDS011;5558;42.702;23.178;2022-10-13T00:12:04;11.70;;;9.40;;
11010;SDS011;5558;42.702;23.178;2022-10-13T00:14:30;12.20;;;10.33;;
11010;SDS011;5558;42.702;23.178;2022-10-13T00:16:57;10.73;;;9.23;;
11010;SDS011;5558;42.702;23.178;2022-10-13T00:19:24;10.60;;;9.50;;
11010;SDS011;5558;42.702;23.178;2022-10-13T00:21:51;11.00;;;9.53;;
11010;SDS011;5558;42.702;23.178;2022-10-13T00:24:20;9.87;;;8.87;;
11010;SDS011;5558;42.702;23.178;2022-10-13T00:26:48;10.97;;;9.33;;
11010;SDS011;5558;42.702;23.178;2022-10-13T00:29:16;11.00;;;9.33;;
11010;SDS011;5558;42.702;23.178;2022-10-13T00:31:43;10.50;;;8.97;;
11010;SDS011;5558;42.702;23.178;2022-10-13T00:34:10;15.10;;;11.43;;
11010;SDS011;5558;42.702;23.178;2022-10-13T00:36:37;14.20;;;11.10;;
11010;SDS011;5558;42.702;23.178;2022-10-13T00:39:04;13.80;;;9.90;;
11010;SDS011;5558;42.702;23.178;2022-10-13T00:41:32;11.60;;;9.17;;
11010;SDS011;5558;42.702;23.178;2022-10-13T00:43:59;10.37;;;9.10;;
11010;SDS011;5558;42.702;23.178;2022-10-13T00:46:28;10.20;;;9.10;;
11010;SDS011;5558;42.702;23.178;2022-10-13T00:48:58;10.80;;;8.97;;
11010;SDS011;5558;42.702;23.178;2022-10-13T00:51:26;10.97;;;9.00;;
11010;SDS011;5558;42.702;23.178;2022-10-13T00:53:56;10.27;;;8.80;;
11010;SDS011;5558;42.702;23.178;2022-10-13T00:56:26;9.73;;;8.73;;
11010;SDS011;5558;42.702;23.178;2022-10-13T00:58:55;12.20;;;8.87;;
11010;SDS011;5558;42.702;23.178;2022-10-13T01:01:23;9.77;;;8.50;;
11010;SDS011;5558;42.702;23.178;2022-10-13T01:03:49;10.20;;;8.63;;
11010;SDS011;5558;42.702;23.178;2022-10-13T01:06:16;10.37;;;8.67;;
11010;SDS011;5558;42.702;23.178;2022-10-13T01:08:44;11.93;;;9.40;;
11010;SDS011;5558;42.702;23.178;2022-10-13T01:11:16;10.43;;;8.73;;
11010;SDS011;5558;42.702;23.178;2022-10-13T01:14:03;9.10;;;8.10;;
11010;SDS011;5558;42.702;23.178;2022-10-13T01:16:38;8.80;;;7.90;;
11010;SDS011;5558;42.702;23.178;2022-10-13T01:19:18;8.80;;;7.90;;
11010;SDS011;5558;42.702;23.178;2022-10-13T01:22:01;9.30;;;7.80;;
11010;SDS011;5558;42.702;23.178;2022-10-13T01:24:42;10.73;;;7.90;;
11010;SDS011;5558;42.702;23.178;2022-10-13T01:27:13;9.00;;;8.03;;
11010;SDS011;5558;42.702;23.178;2022-10-13T01:32:42;9.57;;;8.40;;
11010;SDS011;5558;42.702;23.178;2022-10-13T01:35:20;9.53;;;8.53;;
11010;SDS011;5558;42.702;23.178;2022-10-13T01:37:54;9.37;;;8.03;;
11010;SDS011;5558;42.702;23.178;2022-10-13T01:40:31;9.00;;;7.63;;
11010;SDS011;5558;42.702;23.178;2022-10-13T01:43:06;9.70;;;8.23;;
11010;SDS011;5558;42.702;23.178;2022-10-13T01:45:37;9.77;;;8.20;;
11010;SDS011;5558;42.702;23.178;2022-10-13T01:48:09;9.93;;;8.80;;
11010;SDS011;5558;42.702;23.178;2022-10-13T01:50:36;10.40;;;8.93;;
11010;SDS011;5558;42.702;23.178;2022-10-13T01:53:04;10.13;;;9.07;;
11010;SDS011;5558;42.702;23.178;2022-10-13T01:55:32;9.83;;;8.83;;
11010;SDS011;5558;42.702;23.178;2022-10-13T01:57:59;10.53;;;8.90;;
11010;SDS011;5558;42.702;23.178;2022-10-13T02:00:25;9.40;;;8.50;;
11010;SDS011;5558;42.702;23.178;2022-10-13T02:03:00;9.90;;;8.87;;
11010;SDS011;5558;42.702;23.178;2022-10-13T02:05:37;10.70;;;9.13;;
11010;SDS011;5558;42.702;23.178;2022-10-13T02:08:15;12.00;;;9.73;;
11010;SDS011;5558;42.702;23.178;2022-10-13T02:10:51;11.07;;;9.63;;
11010;SDS011;5558;42.702;23.178;2022-10-13T02:13:24;10.83;;;9.57;;
11010;SDS011;5558;42.702;23.178;2022-10-13T02:15:54;11.20;;;9.60;;
11010;SDS011;5558;42.702;23.178;2022-10-13T02:18:26;12.17;;;9.97;;
11010;SDS011;5558;42.702;23.178;2022-10-13T02:20:56;12.43;;;10.33;;
11010;SDS011;5558;42.702;23.178;2022-10-13T02:23:24;11.97;;;10.27;;
11010;SDS011;5558;42.702;23.178;2022-10-13T02:25:52;11.67;;;10.47;;
11010;SDS011;5558;42.702;23.178;2022-10-13T02:28:20;14.37;;;11.70;;
11010;SDS011;5558;42.702;23.178;2022-10-13T02:30:47;11.80;;;10.50;;
11010;SDS011;5558;42.702;23.178;2022-10-13T02:33:14;12.50;;;10.80;;
11010;SDS011;5558;42.702;23.178;2022-10-13T02:35:42;13.30;;;10.80;;
11010;SDS011;5558;42.702;23.178;2022-10-13T02:38:09;11.77;;;10.17;;
11010;SDS011;5558;42.702;23.178;2022-10-13T02:40:36;11.80;;;10.23;;
11010;SDS011;5558;42.702;23.178;2022-10-13T02:43:03;10.83;;;9.40;;
11010;SDS011;5558;42.702;23.178;2022-10-13T02:45:30;11.70;;;10.07;;
11010;SDS011;5558;42.702;23.178;2022-10-13T02:47:57;12.10;;;10.57;;
11010;SDS011;5558;42.702;23.178;2022-10-13T02:50:24;11.37;;;10.17;;
11010;SDS011;5558;42.702;23.178;2022-10-13T02:52:52;12.00;;;9.90;;
11010;SDS011;5558;42.702;23.178;2022-10-13T02:55:19;12.57;;;10.33;;
11010;SDS011;5558;42.702;23.178;2022-10-13T02:57:45;10.70;;;9.60;;
11010;SDS011;5558;42.702;23.178;2022-10-13T03:00:13;11.13;;;9.90;;
11010;SDS011;5558;42.702;23.178;2022-10-13T03:02:40;12.43;;;10.97;;
11010;SDS011;5558;42.702;23.178;2022-10-13T03:05:07;13.17;;;11.40;;
11010;SDS011;5558;42.702;23.178;2022-10-13T03:07:35;12.97;;;11.00;;
11010;SDS011;5558;42.702;23.178;2022-10-13T03:10:03;11.77;;;10.37;;
11010;SDS011;5558;42.702;23.178;2022-10-13T03:12:30;11.43;;;10.23;;
11010;SDS011;5558;42.702;23.178;2022-10-13T03:14:57;11.60;;;10.40;;
11010;SDS011;5558;42.702;23.178;2022-10-13T03:17:24;14.80;;;11.77;;
11010;SDS011;5558;42.702;23.178;2022-10-13T03:19:51;18.50;;;13.80;;
11010;SDS011;5558;42.702;23.178;2022-10-13T03:22:17;15.90;;;13.00;;
11010;SDS011;5558;42.702;23.178;2022-10-13T03:24:44;17.47;;;12.50;;
11010;SDS011;5558;42.702;23.178;2022-10-13T03:27:12;19.10;;;13.80;;
11010;SDS011;5558;42.702;23.178;2022-10-13T03:29:39;23.50;;;14.97;;
11010;SDS011;5558;42.702;23.178;2022-10-13T03:32:06;19.83;;;13.70;;
11010;SDS011;5558;42.702;23.178;2022-10-13T03:34:33;18.37;;;12.70;;
11010;SDS011;5558;42.702;23.178;2022-10-13T03:37:00;17.63;;;12.63;;
11010;SDS011;5558;42.702;23.178;2022-10-13T03:39:27;17.17;;;13.33;;
11010;SDS011;5558;42.702;23.178;2022-10-13T03:41:53;18.77;;;14.40;;
11010;SDS011;5558;42.702;23.178;2022-10-13T03:44:22;210.63;;;53.90;;
11010;SDS011;5558;42.702;23.178;2022-10-13T03:46:48;68.43;;;31.67;;
11010;SDS011;5558;42.702;23.178;2022-10-13T03:49:15;21.00;;;15.10;;
11010;SDS011;5558;42.702;23.178;2022-10-13T03:51:42;16.03;;;14.20;;
11010;SDS011;5558;42.702;23.178;2022-10-13T03:54:10;20.43;;;14.23;;
11010;SDS011;5558;42.702;23.178;2022-10-13T03:56:37;23.07;;;14.30;;
11010;SDS011;5558;42.702;23.178;2022-10-13T03:59:05;31.53;;;14.50;;
11010;SDS011;5558;42.702;23.178;2022-10-13T04:01:33;22.70;;;15.07;;
11010;SDS011;5558;42.702;23.178;2022-10-13T04:04:00;17.93;;;14.77;;
11010;SDS011;5558;42.702;23.178;2022-10-13T04:06:27;28.57;;;14.30;;
11010;SDS011;5558;42.702;23.178;2022-10-13T04:08:55;25.87;;;15.07;;
11010;SDS011;5558;42.702;23.178;2022-10-13T04:11:21;20.83;;;15.40;;
11010;SDS011;5558;42.702;23.178;2022-10-13T04:13:49;25.00;;;16.63;;
11010;SDS011;5558;42.702;23.178;2022-10-13T04:16:16;32.23;;;20.50;;
11010;SDS011;5558;42.702;23.178;2022-10-13T04:18:48;40.73;;;21.67;;
11010;SDS011;5558;42.702;23.178;2022-10-13T04:21:16;26.70;;;19.30;;
11010;SDS011;5558;42.702;23.178;2022-10-13T04:23:43;22.80;;;18.70;;
11010;SDS011;5558;42.702;23.178;2022-10-13T04:26:13;22.30;;;18.30;;
11010;SDS011;5558;42.702;23.178;2022-10-13T04:28:41;42.10;;;18.23;;
11010;SDS011;5558;42.702;23.178;2022-10-13T04:31:08;26.97;;;16.87;;
11010;SDS011;5558;42.702;23.178;2022-10-13T04:33:35;20.30;;;17.00;;
11010;SDS011;5558;42.702;23.178;2022-10-13T04:36:04;20.83;;;16.90;;
11010;SDS011;5558;42.702;23.178;2022-10-13T04:38:31;20.27;;;16.03;;
11010;SDS011;5558;42.702;23.178;2022-10-13T04:40:58;25.20;;;16.90;;
11010;SDS011;5558;42.702;23.178;2022-10-13T04:43:26;25.27;;;17.47;;
11010;SDS011;5558;42.702;23.178;2022-10-13T04:45:58;22.53;;;18.97;;
11010;SDS011;5558;42.702;23.178;2022-10-13T04:48:25;23.33;;;19.40;;
11010;SDS011;5558;42.702;23.178;2022-10-13T04:50:57;24.53;;;18.93;;
11010;SDS011;5558;42.702;23.178;2022-10-13T04:53:25;24.00;;;18.57;;
11010;SDS011;5558;42.702;23.178;2022-10-13T04:55:53;25.47;;;19.53;;
11010;SDS011;5558;42.702;23.178;2022-10-13T04:58:20;29.93;;;19.47;;
11010;SDS011;5558;42.702;23.178;2022-10-13T05:00:47;25.07;;;19.10;;
11010;SDS011;5558;42.702;23.178;2022-10-13T05:03:13;45.67;;;19.50;;
11010;SDS011;5558;42.702;23.178;2022-10-13T05:05:40;25.70;;;19.00;;
11010;SDS011;5558;42.702;23.178;2022-10-13T05:08:07;30.17;;;18.87;;
11010;SDS011;5558;42.702;23.178;2022-10-13T05:10:35;44.03;;;18.97;;
11010;SDS011;5558;42.702;23.178;2022-10-13T05:13:02;28.17;;;20.20;;
11010;SDS011;5558;42.702;23.178;2022-10-13T05:15:29;38.67;;;25.00;;
11010;SDS011;5558;42.702;23.178;2022-10-13T05:17:56;33.20;;;23.10;;
11010;SDS011;5558;42.702;23.178;2022-10-13T05:20:23;31.57;;;22.30;;
11010;SDS011;5558;42.702;23.178;2022-10-13T05:22:50;30.03;;;21.33;;
11010;SDS011;5558;42.702;23.178;2022-10-13T05:25:17;26.73;;;20.27;;
11010;SDS011;5558;42.702;23.178;2022-10-13T05:27:46;24.53;;;19.03;;
11010;SDS011;5558;42.702;23.178;2022-10-13T05:30:12;24.40;;;19.20;;
11010;SDS011;5558;42.702;23.178;2022-10-13T05:32:39;25.73;;;19.30;;
11010;SDS011;5558;42.702;23.178;2022-10-13T05:35:06;26.03;;;18.60;;
11010;SDS011;5558;42.702;23.178;2022-10-13T05:37:33;23.90;;;17.93;;
11010;SDS011;5558;42.702;23.178;2022-10-13T05:40:00;22.30;;;17.57;;
11010;SDS011;5558;42.702;23.178;2022-10-13T05:42:27;20.33;;;16.37;;
11010;SDS011;5558;42.702;23.178;2022-10-13T05:44:56;23.67;;;17.20;;
11010;SDS011;5558;42.702;23.178;2022-10-13T05:47:23;20.50;;;16.73;;
11010;SDS011;5558;42.702;23.178;2022-10-13T05:49:52;20.50;;;16.10;;
11010;SDS011;5558;42.702;23.178;2022-10-13T05:52:19;23.73;;;16.50;;
11010;SDS011;5558;42.702;23.178;2022-10-13T05:54:48;18.10;;;15.37;;
11010;SDS011;5558;42.702;23.178;2022-10-13T05:57:19;18.63;;;15.27;;
11010;SDS011;5558;42.702;23.178;2022-10-13T05:59:50;16.87;;;14.50;;
11010;SDS011;5558;42.702;23.178;2022-10-13T06:02:21;15.70;;;13.50;;
11010;SDS011;5558;42.702;23.178;2022-10-13T06:04:52;13.20;;;11.73;;
11010;SDS011;5558;42.702;23.178;2022-10-13T06:07:22;13.17;;;11.27;;
11010;SDS011;5558;42.702;23.178;2022-10-13T06:09:49;12.37;;;11.07;;
11010;SDS011;5558;42.702;23.178;2022-10-13T06:12:16;13.77;;;12.13;;
11010;SDS011;5558;42.702;23.178;2022-10-13T06:14:42;14.33;;;12.23;;
11010;SDS011;5558;42.702;23.178;2022-10-13T06:17:09;12.77;;;11.30;;
11010;SDS011;5558;42.702;23.178;2022-10-13T06:19:37;15.10;;;11.57;;
11010;SDS011;5558;42.702;23.178;2022-10-13T06:22:04;13.83;;;11.93;;
11010;SDS011;5558;42.702;23.178;2022-10-13T06:24:31;12.80;;;11.10;;
11010;SDS011;5558;42.702;23.178;2022-10-13T06:26:57;12.10;;;10.80;;
11010;SDS011;5558;42.702;23.178;2022-10-13T06:29:24;12.90;;;11.23;;
11010;SDS011;5558;42.702;23.178;2022-10-13T06:31:51;11.90;;;10.63;;
11010;SDS011;5558;42.702;23.178;2022-10-13T06:34:17;13.43;;;11.43;;
11010;SDS011;5558;42.702;23.178;2022-10-13T06:36:45;12.97;;;11.57;;
11010;SDS011;5558;42.702;23.178;2022-10-13T06:39:12;12.20;;;10.90;;
11010;SDS011;5558;42.702;23.178;2022-10-13T06:41:39;12.33;;;11.03;;
11010;SDS011;5558;42.702;23.178;2022-10-13T06:44:05;15.73;;;14.03;;
11010;SDS011;5558;42.702;23.178;2022-10-13T06:46:32;15.53;;;12.70;;
11010;SDS011;5558;42.702;23.178;2022-10-13T06:48:59;14.83;;;13.00;;
11010;SDS011;5558;42.702;23.178;2022-10-13T06:51:26;15.17;;;12.97;;
11010;SDS011;5558;42.702;23.178;2022-10-13T06:53:55;14.70;;;12.53;;
11010;SDS011;5558;42.702;23.178;2022-10-13T06:56:22;14.43;;;12.30;;
11010;SDS011;5558;42.702;23.178;2022-10-13T06:58:49;14.13;;;11.77;;
11010;SDS011;5558;42.702;23.178;2022-10-13T07:01:15;14.23;;;12.27;;
11010;SDS011;5558;42.702;23.178;2022-10-13T07:03:42;15.07;;;12.67;;
11010;SDS011;5558;42.702;23.178;2022-10-13T07:06:09;14.43;;;12.80;;
11010;SDS011;5558;42.702;23.178;2022-10-13T07:08:35;14.70;;;12.00;;
11010;SDS011;5558;42.702;23.178;2022-10-13T07:11:07;15.90;;;12.37;;
11010;SDS011;5558;42.702;23.178;2022-10-13T07:13:36;14.93;;;12.90;;
11010;SDS011;5558;42.702;23.178;2022-10-13T07:16:03;14.30;;;12.57;;
11010;SDS011;5558;42.702;23.178;2022-10-13T07:18:31;16.13;;;13.13;;
11010;SDS011;5558;42.702;23.178;2022-10-13T07:20:58;15.30;;;13.00;;
11010;SDS011;5558;42.702;23.178;2022-10-13T07:23:26;14.20;;;12.53;;
11010;SDS011;5558;42.702;23.178;2022-10-13T07:25:53;14.93;;;12.80;;
11010;SDS011;5558;42.702;23.178;2022-10-13T07:28:22;14.87;;;12.67;;
11010;SDS011;5558;42.702;23.178;2022-10-13T07:30:49;15.87;;;13.80;;
11010;SDS011;5558;42.702;23.178;2022-10-13T07:33:17;16.47;;;13.90;;
11010;SDS011;5558;42.702;23.178;2022-10-13T07:35:43;18.07;;;14.57;;
11010;SDS011;5558;42.702;23.178;2022-10-13T07:38:10;19.10;;;14.73;;
11010;SDS011;5558;42.702;23.178;2022-10-13T07:40:37;16.60;;;14.13;;
11010;SDS011;5558;42.702;23.178;2022-10-13T07:43:04;17.60;;;14.13;;
11010;SDS011;5558;42.702;23.178;2022-10-13T07:45:32;19.23;;;15.30;;
11010;SDS011;5558;42.702;23.178;2022-10-13T07:47:59;16.57;;;13.93;;
11010;SDS011;5558;42.702;23.178;2022-10-13T07:50:25;15.47;;;13.33;;
11010;SDS011;5558;42.702;23.178;2022-10-13T07:52:52;16.53;;;14.53;;
11010;SDS011;5558;42.702;23.178;2022-10-13T07:55:19;15.60;;;13.07;;
11010;SDS011;5558;42.702;23.178;2022-10-13T07:57:46;16.63;;;13.50;;
11010;SDS011;5558;42.702;23.178;2022-10-13T08:00:12;15.47;;;13.77;;
11010;SDS011;5558;42.702;23.178;2022-10-13T08:02:41;15.73;;;13.63;;
11010;SDS011;5558;42.702;23.178;2022-10-13T08:05:08;15.90;;;14.10;;
11010;SDS011;5558;42.702;23.178;2022-10-13T08:07:34;15.87;;;13.93;;
11010;SDS011;5558;42.702;23.178;2022-10-13T08:10:02;16.40;;;14.33;;
11010;SDS011;5558;42.702;23.178;2022-10-13T08:12:29;17.17;;;14.40;;
11010;SDS011;5558;42.702;23.178;2022-10-13T08:14:56;19.10;;;13.87;;
11010;SDS011;5558;42.702;23.178;2022-10-13T08:17:22;14.83;;;13.17;;
11010;SDS011;5558;42.702;23.178;2022-10-13T08:19:51;15.60;;;13.23;;
11010;SDS011;5558;42.702;23.178;2022-10-13T08:22:17;15.10;;;13.03;;
11010;SDS011;5558;42.702;23.178;2022-10-13T08:24:44;17.27;;;13.93;;
11010;SDS011;5558;42.702;23.178;2022-10-13T08:27:11;16.93;;;14.13;;
11010;SDS011;5558;42.702;23.178;2022-10-13T08:29:44;17.57;;;13.80;;
11010;SDS011;5558;42.702;23.178;2022-10-13T08:32:11;14.53;;;12.77;;
11010;SDS011;5558;42.702;23.178;2022-10-13T08:34:38;14.67;;;12.77;;
11010;SDS011;5558;42.702;23.178;2022-10-13T08:37:10;14.80;;;12.77;;
11010;SDS011;5558;42.702;23.178;2022-10-13T08:39:38;17.73;;;13.60;;
11010;SDS011;5558;42.702;23.178;2022-10-13T08:42:10;16.13;;;13.00;;
11010;SDS011;5558;42.702;23.178;2022-10-13T08:44:40;15.53;;;13.00;;
11010;SDS011;5558;42.702;23.178;2022-10-13T08:47:11;13.53;;;11.57;;
11010;SDS011;5558;42.702;23.178;2022-10-13T08:49:43;15.17;;;12.03;;
11010;SDS011;5558;42.702;23.178;2022-10-13T08:52:12;13.50;;;11.43;;
11010;SDS011;5558;42.702;23.178;2022-10-13T08:54:43;14.07;;;11.60;;
11010;SDS011;5558;42.702;23.178;2022-10-13T08:57:10;12.73;;;11.13;;
11010;SDS011;5558;42.702;23.178;2022-10-13T08:59:37;11.80;;;9.93;;
11010;SDS011;5558;42.702;23.178;2022-10-13T09:02:07;12.73;;;10.67;;
11010;SDS011;5558;42.702;23.178;2022-10-13T09:04:38;11.03;;;9.83;;
11010;SDS011;5558;42.702;23.178;2022-10-13T09:07:09;12.70;;;9.97;;
11010;SDS011;5558;42.702;23.178;2022-10-13T09:09:40;11.23;;;9.50;;
11010;SDS011;5558;42.702;23.178;2022-10-13T09:12:08;12.10;;;9.97;;
11010;SDS011;5558;42.702;23.178;2022-10-13T09:14:36;11.30;;;10.10;;
11010;SDS011;5558;42.702;23.178;2022-10-13T09:17:14;10.67;;;9.57;;
11010;SDS011;5558;42.702;23.178;2022-10-13T09:19:42;12.90;;;9.83;;
11010;SDS011;5558;42.702;23.178;2022-10-13T09:22:15;12.37;;;9.40;;
11010;SDS011;5558;42.702;23.178;2022-10-13T09:24:51;11.50;;;9.83;;
11010;SDS011;5558;42.702;23.178;2022-10-13T09:27:40;12.83;;;10.27;;
11010;SDS011;5558;42.702;23.178;2022-10-13T09:30:24;14.83;;;10.50;;
11010;SDS011;5558;42.702;23.178;2022-10-13T09:32:59;13.23;;;10.13;;
11010;SDS011;5558;42.702;23.178;2022-10-13T09:35:39;11.57;;;9.43;;
11010;SDS011;5558;42.702;23.178;2022-10-13T09:38:14;10.20;;;9.10;;
11010;SDS011;5558;42.702;23.178;2022-10-13T09:40:42;9.80;;;8.73;;
11010;SDS011;5558;42.702;23.178;2022-10-13T09:43:24;11.40;;;8.77;;
11010;SDS011;5558;42.702;23.178;2022-10-13T09:45:54;10.37;;;9.27;;
11010;SDS011;5558;42.702;23.178;2022-10-13T09:48:22;10.23;;;8.60;;
11010;SDS011;5558;42.702;23.178;2022-10-13T09:50:52;10.73;;;9.03;;
11010;SDS011;5558;42.702;23.178;2022-10-13T09:53:24;11.73;;;9.53;;
11010;SDS011;5558;42.702;23.178;2022-10-13T09:58:45;14.03;;;9.40;;
11010;SDS011;5558;42.702;23.178;2022-10-13T10:01:18;10.67;;;8.50;;
11010;SDS011;5558;42.702;23.178;2022-10-13T10:03:48;8.60;;;7.70;;
11010;SDS011;5558;42.702;23.178;2022-10-13T10:06:16;9.60;;;8.60;;
11010;SDS011;5558;42.702;23.178;2022-10-13T10:08:49;8.73;;;7.80;;
11010;SDS011;5558;42.702;23.178;2022-10-13T10:11:21;9.27;;;7.77;;
11010;SDS011;5558;42.702;23.178;2022-10-13T10:13:53;8.53;;;7.63;;
11010;SDS011;5558;42.702;23.178;2022-10-13T10:16:22;9.27;;;8.27;;
11010;SDS011;5558;42.702;23.178;2022-10-13T10:18:57;9.73;;;8.33;;
11010;SDS011;5558;42.702;23.178;2022-10-13T10:21:30;9.50;;;8.47;;
11010;SDS011;5558;42.702;23.178;2022-10-13T10:24:06;9.70;;;8.30;;
11010;SDS011;5558;42.702;23.178;2022-10-13T10:26:47;8.70;;;7.80;;
11010;SDS011;5558;42.702;23.178;2022-10-13T10:29:25;8.40;;;7.53;;
11010;SDS011;5558;42.702;23.178;2022-10-13T10:32:03;10.10;;;7.80;;
11010;SDS011;5558;42.702;23.178;2022-10-13T10:34:40;9.70;;;7.50;;
11010;SDS011;5558;42.702;23.178;2022-10-13T10:37:16;9.23;;;7.67;;
11010;SDS011;5558;42.702;23.178;2022-10-13T10:39:48;8.30;;;7.50;;
11010;SDS011;5558;42.702;23.178;2022-10-13T10:42:37;8.90;;;7.70;;
11010;SDS011;5558;42.702;23.178;2022-10-13T10:45:20;9.67;;;8.13;;
11010;SDS011;5558;42.702;23.178;2022-10-13T10:47:50;9.97;;;8.53;;
11010;SDS011;5558;42.702;23.178;2022-10-13T10:50:21;13.33;;;9.87;;
11010;SDS011;5558;42.702;23.178;2022-10-13T10:52:52;13.00;;;10.07;;
11010;SDS011;5558;42.702;23.178;2022-10-13T10:55:27;11.27;;;9.43;;
11010;SDS011;5558;42.702;23.178;2022-10-13T10:58:01;13.03;;;10.27;;
11010;SDS011;5558;42.702;23.178;2022-10-13T11:00:36;11.83;;;9.83;;
11010;SDS011;5558;42.702;23.178;2022-10-13T11:03:06;12.03;;;10.03;;
11010;SDS011;5558;42.702;23.178;2022-10-13T11:05:58;12.20;;;9.50;;
11010;SDS011;5558;42.702;23.178;2022-10-13T11:08:28;12.67;;;9.80;;
11010;SDS011;5558;42.702;23.178;2022-10-13T11:14:23;12.10;;;9.83;;
11010;SDS011;5558;42.702;23.178;2022-10-13T11:19:45;13.93;;;10.87;;
11010;SDS011;5558;42.702;23.178;2022-10-13T11:22:17;13.10;;;10.90;;
11010;SDS011;5558;42.702;23.178;2022-10-13T11:24:49;14.30;;;10.73;;
11010;SDS011;5558;42.702;23.178;2022-10-13T11:27:38;14.07;;;10.47;;
11010;SDS011;5558;42.702;23.178;2022-10-13T11:39:28;9.93;;;8.03;;
11010;SDS011;5558;42.702;23.178;2022-10-13T11:42:30;12.00;;;9.43;;
11010;SDS011;5558;42.702;23.178;2022-10-13T11:45:18;11.67;;;9.33;;
11010;SDS011;5558;42.702;23.178;2022-10-13T11:48:23;12.47;;;9.20;;
11010;SDS011;5558;42.702;23.178;2022-10-13T11:51:14;12.60;;;9.10;;
11010;SDS011;5558;42.702;23.178;2022-10-13T11:53:51;10.40;;;8.03;;
11010;SDS011;5558;42.702;23.178;2022-10-13T11:56:22;12.87;;;9.17;;
11010;SDS011;5558;42.702;23.178;2022-10-13T11:58:57;11.50;;;9.40;;
11010;SDS011;5558;42.702;23.178;2022-10-13T12:01:24;11.07;;;9.43;;
11010;SDS011;5558;42.702;23.178;2022-10-13T12:03:52;11.03;;;9.37;;
11010;SDS011;5558;42.702;23.178;2022-10-13T12:06:24;10.80;;;9.10;;
11010;SDS011;5558;42.702;23.178;2022-10-13T12:08:58;11.67;;;8.93;;
11010;SDS011;5558;42.702;23.178;2022-10-13T12:11:28;10.73;;;8.90;;
11010;SDS011;5558;42.702;23.178;2022-10-13T12:13:56;9.90;;;8.67;;
11010;SDS011;5558;42.702;23.178;2022-10-13T12:16:23;10.80;;;8.63;;
11010;SDS011;5558;42.702;23.178;2022-10-13T12:18:50;11.63;;;8.63;;
11010;SDS011;5558;42.702;23.178;2022-10-13T12:21:18;9.83;;;8.60;;
11010;SDS011;5558;42.702;23.178;2022-10-13T12:23:47;12.30;;;9.57;;
11010;SDS011;5558;42.702;23.178;2022-10-13T12:26:15;12.37;;;9.20;;
11010;SDS011;5558;42.702;23.178;2022-10-13T12:28:49;13.60;;;10.30;;
11010;SDS011;5558;42.702;23.178;2022-10-13T12:31:18;13.73;;;10.20;;
11010;SDS011;5558;42.702;23.178;2022-10-13T12:33:53;14.50;;;10.20;;
11010;SDS011;5558;42.702;23.178;2022-10-13T12:36:24;13.40;;;9.73;;
11010;SDS011;5558;42.702;23.178;2022-10-13T12:38:54;12.70;;;9.93;;
11010;SDS011;5558;42.702;23.178;2022-10-13T12:41:24;11.47;;;9.40;;
11010;SDS011;5558;42.702;23.178;2022-10-13T12:43:53;12.47;;;9.57;;
11010;SDS011;5558;42.702;23.178;2022-10-13T12:46:33;11.97;;;9.47;;
11010;SDS011;5558;42.702;23.178;2022-10-13T12:49:04;13.33;;;10.33;;
11010;SDS011;5558;42.702;23.178;2022-10-13T12:51:32;13.13;;;10.00;;
11010;SDS011;5558;42.702;23.178;2022-10-13T12:54:05;13.20;;;10.33;;
11010;SDS011;5558;42.702;23.178;2022-10-13T12:56:33;13.27;;;10.47;;
11010;SDS011;5558;42.702;23.178;2022-10-13T12:59:00;13.97;;;11.03;;
11010;SDS011;5558;42.702;23.178;2022-10-13T13:01:28;13.60;;;10.97;;
11010;SDS011;5558;42.702;23.178;2022-10-13T13:03:57;16.20;;;11.20;;
11010;SDS011;5558;42.702;23.178;2022-10-13T13:06:30;13.37;;;10.80;;
11010;SDS011;5558;42.702;23.178;2022-10-13T13:09:06;14.60;;;10.87;;
11010;SDS011;5558;42.702;23.178;2022-10-13T13:12:03;11.63;;;9.53;;
11010;SDS011;5558;42.702;23.178;2022-10-13T13:14:46;10.20;;;8.73;;
11010;SDS011;5558;42.702;23.178;2022-10-13T13:17:19;11.23;;;9.47;;
11010;SDS011;5558;42.702;23.178;2022-10-13T13:19:48;12.87;;;9.57;;
11010;SDS011;5558;42.702;23.178;2022-10-13T13:22:18;10.67;;;9.07;;
11010;SDS011;5558;42.702;23.178;2022-10-13T13:24:45;10.83;;;8.90;;
11010;SDS011;5558;42.702;23.178;2022-10-13T13:27:19;10.17;;;8.67;;
11010;SDS011;5558;42.702;23.178;2022-10-13T13:29:49;12.77;;;8.80;;
11010;SDS011;5558;42.702;23.178;2022-10-13T13:32:18;11.33;;;8.53;;
11010;SDS011;5558;42.702;23.178;2022-10-13T13:34:46;11.07;;;8.47;;
11010;SDS011;5558;42.702;23.178;2022-10-13T13:37:13;10.13;;;8.27;;
11010;SDS011;5558;42.702;23.178;2022-10-13T13:39:47;10.03;;;8.93;;
11010;SDS011;5558;42.702;23.178;2022-10-13T13:42:13;11.03;;;8.27;;
11010;SDS011;5558;42.702;23.178;2022-10-13T13:44:40;9.40;;;8.00;;
11010;SDS011;5558;42.702;23.178;2022-10-13T13:49:53;9.73;;;8.50;;
11010;SDS011;5558;42.702;23.178;2022-10-13T13:52:21;10.77;;;8.20;;
11010;SDS011;5558;42.702;23.178;2022-10-13T13:54:50;12.70;;;8.43;;
11010;SDS011;5558;42.702;23.178;2022-10-13T13:57:17;10.07;;;7.47;;
11010;SDS011;5558;42.702;23.178;2022-10-13T13:59:44;10.23;;;8.63;;
11010;SDS011;5558;42.702;23.178;2022-10-13T14:02:12;11.43;;;8.50;;
11010;SDS011;5558;42.702;23.178;2022-10-13T14:04:40;10.77;;;8.93;;
11010;SDS011;5558;42.702;23.178;2022-10-13T14:07:07;10.70;;;8.57;;
11010;SDS011;5558;42.702;23.178;2022-10-13T14:09:34;11.70;;;8.70;;
11010;SDS011;5558;42.702;23.178;2022-10-13T14:12:03;9.90;;;8.13;;
11010;SDS011;5558;42.702;23.178;2022-10-13T14:14:30;9.07;;;7.77;;
11010;SDS011;5558;42.702;23.178;2022-10-13T14:16:57;8.63;;;7.43;;
11010;SDS011;5558;42.702;23.178;2022-10-13T14:19:24;9.10;;;8.00;;
11010;SDS011;5558;42.702;23.178;2022-10-13T14:21:51;8.83;;;6.97;;
11010;SDS011;5558;42.702;23.178;2022-10-13T14:24:18;8.33;;;7.00;;
11010;SDS011;5558;42.702;23.178;2022-10-13T14:26:45;8.10;;;6.50;;
11010;SDS011;5558;42.702;23.178;2022-10-13T14:29:13;8.10;;;7.00;;
11010;SDS011;5558;42.702;23.178;2022-10-13T14:31:41;7.57;;;6.53;;
11010;SDS011;5558;42.702;23.178;2022-10-13T14:34:08;7.83;;;6.90;;
11010;SDS011;5558;42.702;23.178;2022-10-13T14:36:35;7.13;;;6.43;;
11010;SDS011;5558;42.702;23.178;2022-10-13T14:39:02;7.40;;;6.23;;
11010;SDS011;5558;42.702;23.178;2022-10-13T14:41:29;6.93;;;5.80;;
11010;SDS011;5558;42.702;23.178;2022-10-13T14:43:56;8.90;;;6.50;;
11010;SDS011;5558;42.702;23.178;2022-10-13T14:46:24;9.27;;;6.10;;
11010;SDS011;5558;42.702;23.178;2022-10-13T14:48:51;7.93;;;6.17;;
11010;SDS011;5558;42.702;23.178;2022-10-13T14:51:17;7.77;;;6.13;;
11010;SDS011;5558;42.702;23.178;2022-10-13T14:53:44;8.43;;;6.30;;
11010;SDS011;5558;42.702;23.178;2022-10-13T14:56:15;7.73;;;6.50;;
11010;SDS011;5558;42.702;23.178;2022-10-13T14:58:43;8.27;;;6.57;;
11010;SDS011;5558;42.702;23.178;2022-10-13T15:01:11;8.27;;;6.77;;
11010;SDS011;5558;42.702;23.178;2022-10-13T15:03:39;8.80;;;6.90;;
11010;SDS011;5558;42.702;23.178;2022-10-13T15:06:06;8.20;;;6.20;;
11010;SDS011;5558;42.702;23.178;2022-10-13T15:08:37;8.07;;;6.27;;
11010;SDS011;5558;42.702;23.178;2022-10-13T15:11:04;8.47;;;6.70;;